createdAt,value
2022-10-02T00:00:24.426Z,90.98
2022-10-02T00:01:24.435Z,90.98
2022-10-02T00:02:24.371Z,90.99
2022-10-02T00:03:24.424Z,90.97
2022-10-02T00:04:24.366Z,90.95
2022-10-02T00:05:24.339Z,90.95
2022-10-02T00:06:24.334Z,90.95
2022-10-02T00:07:24.355Z,90.92
2022-10-02T00:08:24.500Z,90.92
2022-10-02T00:09:24.296Z,90.93
2022-10-02T00:10:24.313Z,90.95
2022-10-02T00:11:24.272Z,91.01
2022-10-02T00:12:24.321Z,90.99
2022-10-02T00:13:24.247Z,90.98
2022-10-02T00:14:24.265Z,90.93
2022-10-02T00:15:24.224Z,90.91
2022-10-02T00:16:24.351Z,90.81
2022-10-02T00:17:24.218Z,90.81
2022-10-02T00:18:24.243Z,90.75
2022-10-02T00:19:24.200Z,90.71
2022-10-02T00:20:24.197Z,90.61
2022-10-02T00:21:24.172Z,90.59
2022-10-02T00:22:24.207Z,90.55
2022-10-02T00:23:24.212Z,90.50
2022-10-02T00:24:24.137Z,90.45
2022-10-02T00:25:24.179Z,90.42
2022-10-02T00:26:24.138Z,90.43
2022-10-02T00:27:24.146Z,90.43
2022-10-02T00:28:24.145Z,90.42
2022-10-02T00:29:24.118Z,90.42
2022-10-02T00:30:24.089Z,90.41
2022-10-02T00:31:24.163Z,90.32
2022-10-02T00:32:24.065Z,90.25
2022-10-02T00:33:24.060Z,90.32
2022-10-02T00:34:24.048Z,90.38
2022-10-02T00:35:24.023Z,90.44
2022-10-02T00:36:24.039Z,90.51
2022-10-02T00:37:24.049Z,90.55
2022-10-02T00:38:24.017Z,90.51
2022-10-02T00:39:24.000Z,90.52
2022-10-02T00:40:23.982Z,90.50
2022-10-02T00:41:24.020Z,90.44
2022-10-02T00:42:24.003Z,90.36
2022-10-02T00:43:23.944Z,90.35
2022-10-02T00:44:23.940Z,90.25
2022-10-02T00:45:23.923Z,90.03
2022-10-02T00:46:23.938Z,89.88
2022-10-02T00:47:23.903Z,89.75
2022-10-02T00:48:23.964Z,89.67
2022-10-02T00:49:24.023Z,89.52
2022-10-02T00:50:23.885Z,89.42
2022-10-02T00:51:23.873Z,89.29
2022-10-02T00:52:23.851Z,89.33
2022-10-02T00:53:23.841Z,89.34
2022-10-02T00:54:23.884Z,89.32
2022-10-02T00:55:23.838Z,89.31
2022-10-02T00:56:23.824Z,89.31
2022-10-02T00:57:23.810Z,89.33
2022-10-02T00:58:23.844Z,89.33
2022-10-02T00:59:23.777Z,89.28
2022-10-02T01:00:30.414Z,89.27
2022-10-02T01:01:30.276Z,89.29
2022-10-02T01:02:23.962Z,89.26
2022-10-02T01:03:23.780Z,89.28
2022-10-02T01:04:23.788Z,89.38
2022-10-02T01:05:23.768Z,89.44
2022-10-02T01:06:23.785Z,89.37
2022-10-02T01:07:23.747Z,89.35
2022-10-02T01:08:23.786Z,89.42
2022-10-02T01:09:23.733Z,89.53
2022-10-02T01:11:28.799Z,89.18
2022-10-02T01:12:29.690Z,89.72
2022-10-02T01:13:29.744Z,89.73
2022-10-02T01:14:29.669Z,89.74
2022-10-02T01:15:29.714Z,89.76
2022-10-02T01:16:29.733Z,89.85
2022-10-02T01:17:29.736Z,89.87
2022-10-02T01:18:29.696Z,89.97
2022-10-02T01:19:29.658Z,90.02
2022-10-02T01:20:29.665Z,90.04
2022-10-02T01:21:29.611Z,90.09
2022-10-02T01:22:29.601Z,90.13
2022-10-02T01:23:29.619Z,90.16
2022-10-02T01:24:29.616Z,90.17
2022-10-02T01:25:29.611Z,90.21
2022-10-02T01:26:29.575Z,90.26
2022-10-02T01:27:29.601Z,90.31
2022-10-02T01:28:29.595Z,90.38
2022-10-02T01:29:29.559Z,90.44
2022-10-02T01:30:29.564Z,90.54
2022-10-02T01:31:29.566Z,90.58
2022-10-02T01:32:29.515Z,90.63
2022-10-02T01:33:29.508Z,90.72
2022-10-02T01:34:29.528Z,90.81
2022-10-02T01:35:29.468Z,90.82
2022-10-02T01:36:29.510Z,90.86
2022-10-02T01:37:29.459Z,90.88
2022-10-02T01:38:29.451Z,90.87
2022-10-02T01:39:29.490Z,90.89
2022-10-02T01:40:29.423Z,90.89
2022-10-02T01:41:29.437Z,90.93
2022-10-02T01:42:29.458Z,90.94
2022-10-02T01:43:29.454Z,90.99
2022-10-02T01:44:29.440Z,90.99
2022-10-02T01:45:29.443Z,90.96
2022-10-02T01:46:29.377Z,90.95
2022-10-02T01:47:29.404Z,90.93
2022-10-02T01:48:29.371Z,90.92
2022-10-02T01:49:29.330Z,90.94
2022-10-02T01:50:29.325Z,90.95
2022-10-02T01:51:29.395Z,90.95
2022-10-02T01:52:29.307Z,90.94
2022-10-02T01:53:29.351Z,90.95
2022-10-02T01:54:29.272Z,91.01
2022-10-02T01:55:29.294Z,91.02
2022-10-02T01:56:29.267Z,91.02
2022-10-02T01:57:29.243Z,91.04
2022-10-02T01:58:29.285Z,90.99
2022-10-02T01:59:29.285Z,90.99
2022-10-02T02:00:29.270Z,90.98
2022-10-02T02:01:29.269Z,90.93
2022-10-02T02:02:29.308Z,90.90
2022-10-02T02:03:29.185Z,90.84
2022-10-02T02:04:29.228Z,90.87
2022-10-02T02:05:29.258Z,90.90
2022-10-02T02:06:29.154Z,90.90
2022-10-02T02:07:29.149Z,90.87
2022-10-02T02:08:29.217Z,90.87
2022-10-02T02:09:29.122Z,90.84
2022-10-02T02:10:29.161Z,90.81
2022-10-02T02:11:29.133Z,90.73
2022-10-02T02:12:29.135Z,90.66
2022-10-02T02:13:29.100Z,90.59
2022-10-02T02:14:29.105Z,90.56
2022-10-02T02:15:29.064Z,90.48
2022-10-02T02:16:29.206Z,90.50
2022-10-02T02:17:29.069Z,90.54
2022-10-02T02:18:29.031Z,90.58
2022-10-02T02:19:29.034Z,90.58
2022-10-02T02:20:29.034Z,90.56
2022-10-02T02:21:29.002Z,90.56
2022-10-02T02:22:29.078Z,90.53
2022-10-02T02:23:29.013Z,90.59
2022-10-02T02:24:28.981Z,90.62
2022-10-02T02:25:28.980Z,90.64
2022-10-02T02:26:29.026Z,90.68
2022-10-02T02:27:28.984Z,90.73
2022-10-02T02:28:29.057Z,90.76
2022-10-02T02:29:28.936Z,90.77
2022-10-02T02:30:28.908Z,90.76
2022-10-02T02:31:28.947Z,90.81
2022-10-02T02:32:28.913Z,90.82
2022-10-02T02:33:28.916Z,90.81
2022-10-02T02:34:28.936Z,90.82
2022-10-02T02:35:28.883Z,90.75
2022-10-02T02:36:28.872Z,90.74
2022-10-02T02:37:28.851Z,90.75
2022-10-02T02:38:28.980Z,90.74
2022-10-02T02:39:28.850Z,90.74
2022-10-02T02:40:28.855Z,90.79
2022-10-02T02:41:28.867Z,90.89
2022-10-02T02:42:28.839Z,90.90
2022-10-02T02:43:28.839Z,90.93
2022-10-02T02:44:28.780Z,90.91
2022-10-02T02:45:28.813Z,90.85
2022-10-02T02:46:28.887Z,90.89
2022-10-02T02:47:28.758Z,90.88
2022-10-02T02:48:28.763Z,90.79
2022-10-02T02:49:28.737Z,90.71
2022-10-02T02:50:28.747Z,90.61
2022-10-02T02:51:28.756Z,90.43
2022-10-02T02:52:28.737Z,90.27
2022-10-02T02:53:28.739Z,90.24
2022-10-02T02:54:28.770Z,90.13
2022-10-02T02:55:28.704Z,90.00
2022-10-02T02:56:28.673Z,89.90
2022-10-02T02:57:28.679Z,89.84
2022-10-02T02:58:28.650Z,89.85
2022-10-02T02:59:28.643Z,89.74
2022-10-02T03:00:28.713Z,89.67
2022-10-02T03:01:28.768Z,89.64
2022-10-02T03:02:28.661Z,89.60
2022-10-02T03:03:28.684Z,89.47
2022-10-02T03:04:28.578Z,89.40
2022-10-02T03:05:28.577Z,89.36
2022-10-02T03:06:28.594Z,89.35
2022-10-02T03:07:28.544Z,89.46
2022-10-02T03:08:28.548Z,89.43
2022-10-02T03:09:28.591Z,89.47
2022-10-02T03:10:28.593Z,89.50
2022-10-02T03:11:28.572Z,89.47
2022-10-02T03:12:28.525Z,89.46
2022-10-02T03:13:28.516Z,89.49
2022-10-02T03:14:28.511Z,89.54
2022-10-02T03:15:28.624Z,89.55
2022-10-02T03:16:28.521Z,89.55
2022-10-02T03:17:28.462Z,89.53
2022-10-02T03:18:28.454Z,89.50
2022-10-02T03:19:28.431Z,89.53
2022-10-02T03:20:28.420Z,89.49
2022-10-02T03:21:28.416Z,89.46
2022-10-02T03:22:28.450Z,89.39
2022-10-02T03:23:28.435Z,89.30
2022-10-02T03:24:28.439Z,89.20
2022-10-02T03:25:28.388Z,89.13
2022-10-02T03:26:28.414Z,89.08
2022-10-02T03:27:31.400Z,89.06
2022-10-02T03:28:53.609Z,89.18
2022-10-02T03:29:28.380Z,89.21
2022-10-02T03:30:28.396Z,89.19
2022-10-02T03:31:28.398Z,89.12
2022-10-02T03:32:28.329Z,89.14
2022-10-02T03:33:28.354Z,89.06
2022-10-02T03:34:28.287Z,88.95
2022-10-02T03:35:28.320Z,88.90
2022-10-02T03:36:28.342Z,89.00
2022-10-02T03:37:28.250Z,89.02
2022-10-02T03:38:28.297Z,88.91
2022-10-02T03:39:28.245Z,88.82
2022-10-02T03:40:28.264Z,88.77
2022-10-02T03:41:28.221Z,88.81
2022-10-02T03:42:28.202Z,88.87
2022-10-02T03:43:28.404Z,88.93
2022-10-02T03:44:28.186Z,88.87
2022-10-02T03:45:49.973Z,88.83
2022-10-02T03:46:28.255Z,88.89
2022-10-02T03:47:28.152Z,88.89
2022-10-02T03:48:28.142Z,88.93
2022-10-02T03:49:28.127Z,88.96
2022-10-02T03:50:29.327Z,88.98
2022-10-02T03:51:28.153Z,89.03
2022-10-02T03:52:28.238Z,89.00
2022-10-02T03:53:28.107Z,88.92
2022-10-02T03:54:28.149Z,88.87
2022-10-02T03:55:28.083Z,88.96
2022-10-02T03:56:28.064Z,88.99
2022-10-02T03:57:28.062Z,89.14
2022-10-02T03:58:28.100Z,89.12
2022-10-02T03:59:28.075Z,89.14
2022-10-02T04:00:28.034Z,89.16
2022-10-02T04:01:28.110Z,89.15
2022-10-02T04:02:28.002Z,89.25
2022-10-02T04:03:28.091Z,89.26
2022-10-02T04:04:28.045Z,89.23
2022-10-02T04:05:28.013Z,89.19
2022-10-02T04:06:27.972Z,89.13
2022-10-02T04:07:27.993Z,89.14
2022-10-02T04:08:27.948Z,89.13
2022-10-02T04:09:27.966Z,89.15
2022-10-02T04:10:27.992Z,89.14
2022-10-02T04:11:27.992Z,89.11
2022-10-02T04:12:27.918Z,89.12
2022-10-02T04:13:27.916Z,89.15
2022-10-02T04:14:27.887Z,89.19
2022-10-02T04:15:27.875Z,89.19
2022-10-02T04:16:28.012Z,89.14
2022-10-02T04:17:27.855Z,89.10
2022-10-02T04:18:27.873Z,89.01
2022-10-02T04:19:27.871Z,88.98
2022-10-02T04:20:27.884Z,89.02
2022-10-02T04:21:27.814Z,89.09
2022-10-02T04:22:27.826Z,89.09
2022-10-02T04:23:27.822Z,88.97
2022-10-02T04:24:27.796Z,88.93
2022-10-02T04:25:27.886Z,88.94
2022-10-02T04:26:27.770Z,89.00
2022-10-02T04:27:27.780Z,89.04
2022-10-02T04:28:27.826Z,88.94
2022-10-02T04:29:27.762Z,89.01
2022-10-02T04:30:27.801Z,89.03
2022-10-02T04:31:27.757Z,89.03
2022-10-02T04:32:27.727Z,89.04
2022-10-02T04:33:27.705Z,88.92
2022-10-02T04:34:27.690Z,88.91
2022-10-02T04:35:27.735Z,88.82
2022-10-02T04:36:27.741Z,88.81
2022-10-02T04:37:27.674Z,88.73
2022-10-02T04:38:27.699Z,88.75
2022-10-02T04:39:27.751Z,88.64
2022-10-02T04:40:27.666Z,88.57
2022-10-02T04:41:27.642Z,88.37
2022-10-02T04:42:27.615Z,88.26
2022-10-02T04:43:27.656Z,88.28
2022-10-02T04:44:27.694Z,88.18
2022-10-02T04:45:27.630Z,88.06
2022-10-02T04:46:27.700Z,88.10
2022-10-02T04:47:27.606Z,88.07
2022-10-02T04:48:27.578Z,88.07
2022-10-02T04:49:27.659Z,88.11
2022-10-02T04:50:27.478Z,88.15
2022-10-02T04:51:27.517Z,88.27
2022-10-02T04:52:27.535Z,88.24
2022-10-02T04:53:27.460Z,88.23
2022-10-02T04:54:27.466Z,88.29
2022-10-02T04:55:27.564Z,88.33
2022-10-02T04:56:27.490Z,88.14
2022-10-02T04:57:27.414Z,88.12
2022-10-02T04:58:27.410Z,88.14
2022-10-02T04:59:27.383Z,88.27
2022-10-02T05:00:27.388Z,88.28
2022-10-02T05:01:27.410Z,88.25
2022-10-02T05:02:27.511Z,88.32
2022-10-02T05:03:27.359Z,88.34
2022-10-02T05:04:27.356Z,88.21
2022-10-02T05:05:27.434Z,88.11
2022-10-02T05:06:27.365Z,88.27
2022-10-02T05:07:27.307Z,88.26
2022-10-02T05:08:27.294Z,88.41
2022-10-02T05:09:28.598Z,88.43
2022-10-02T05:10:27.342Z,88.52
2022-10-02T05:11:27.359Z,88.53
2022-10-02T05:12:27.276Z,88.55
2022-10-02T05:13:27.277Z,88.65
2022-10-02T05:14:27.329Z,88.57
2022-10-02T05:15:27.279Z,88.69
2022-10-02T05:16:27.416Z,88.73
2022-10-02T05:17:27.248Z,88.72
2022-10-02T05:18:27.212Z,88.73
2022-10-02T05:19:27.231Z,88.74
2022-10-02T05:20:27.194Z,88.74
2022-10-02T05:21:27.192Z,88.82
2022-10-02T05:22:27.224Z,88.83
2022-10-02T05:23:27.193Z,88.91
2022-10-02T05:24:27.139Z,89.08
2022-10-02T05:25:27.178Z,89.07
2022-10-02T05:26:27.186Z,89.07
2022-10-02T05:27:27.172Z,89.12
2022-10-02T05:28:27.227Z,89.17
2022-10-02T05:29:27.109Z,89.18
2022-10-02T05:30:27.086Z,89.20
2022-10-02T05:31:27.178Z,89.24
2022-10-02T05:32:27.055Z,89.14
2022-10-02T05:33:27.048Z,88.95
2022-10-02T05:34:27.094Z,88.83
2022-10-02T05:35:27.063Z,88.84
2022-10-02T05:36:27.022Z,88.76
2022-10-02T05:37:27.024Z,88.73
2022-10-02T05:38:27.047Z,88.76
2022-10-02T05:39:27.033Z,88.80
2022-10-02T05:40:27.009Z,88.82
2022-10-02T05:41:27.012Z,88.81
2022-10-02T05:42:26.956Z,88.83
2022-10-02T05:43:26.959Z,88.86
2022-10-02T05:44:26.981Z,89.04
2022-10-02T05:45:26.967Z,89.00
2022-10-02T05:46:26.974Z,88.90
2022-10-02T05:47:26.897Z,88.87
2022-10-02T05:48:26.893Z,88.83
2022-10-02T05:49:26.944Z,88.79
2022-10-02T05:50:26.963Z,88.83
2022-10-02T05:51:26.861Z,88.71
2022-10-02T05:52:26.866Z,88.72
2022-10-02T05:53:26.915Z,88.81
2022-10-02T05:54:26.899Z,88.81
2022-10-02T05:55:26.826Z,88.85
2022-10-02T05:56:26.827Z,88.93
2022-10-02T05:57:26.960Z,88.91
2022-10-02T05:58:26.811Z,88.90
2022-10-02T05:59:26.899Z,88.90
2022-10-02T06:00:26.775Z,88.90
2022-10-02T06:01:26.798Z,88.91
2022-10-02T06:02:26.912Z,88.88
2022-10-02T06:03:26.823Z,88.95
2022-10-02T06:04:26.759Z,89.01
2022-10-02T06:05:26.781Z,89.00
2022-10-02T06:06:26.774Z,89.00
2022-10-02T06:07:26.716Z,89.04
2022-10-02T06:08:26.706Z,89.08
2022-10-02T06:09:26.709Z,89.14
2022-10-02T06:10:26.755Z,89.18
2022-10-02T06:11:26.725Z,89.20
2022-10-02T06:12:26.734Z,89.18
2022-10-02T06:13:26.654Z,89.24
2022-10-02T06:14:26.641Z,89.18
2022-10-02T06:15:26.650Z,89.11
2022-10-02T06:16:26.656Z,89.07
2022-10-02T06:17:26.667Z,89.02
2022-10-02T06:18:26.642Z,88.99
2022-10-02T06:19:26.608Z,88.84
2022-10-02T06:20:26.609Z,88.76
2022-10-02T06:21:26.598Z,88.88
2022-10-02T06:22:26.561Z,88.91
2022-10-02T06:23:26.777Z,88.81
2022-10-02T06:24:26.567Z,88.76
2022-10-02T06:25:26.544Z,88.68
2022-10-02T06:26:26.555Z,88.60
2022-10-02T06:27:26.514Z,88.69
2022-10-02T06:28:26.675Z,88.77
2022-10-02T06:29:27.416Z,88.80
2022-10-02T06:30:26.477Z,88.77
2022-10-02T06:31:26.549Z,88.66
2022-10-02T06:32:26.508Z,88.76
2022-10-02T06:33:26.464Z,88.72
2022-10-02T06:34:26.448Z,88.58
2022-10-02T06:35:26.431Z,88.52
2022-10-02T06:36:26.445Z,88.43
2022-10-02T06:37:26.465Z,88.41
2022-10-02T06:38:26.401Z,88.28
2022-10-02T06:39:26.404Z,88.37
2022-10-02T06:40:26.416Z,88.33
2022-10-02T06:41:26.428Z,88.44
2022-10-02T06:42:26.510Z,88.33
2022-10-02T06:43:26.431Z,88.23
2022-10-02T06:44:26.344Z,88.26
2022-10-02T06:45:26.393Z,88.30
2022-10-02T06:46:26.373Z,88.10
2022-10-02T06:47:26.337Z,88.03
2022-10-02T06:48:26.297Z,88.00
2022-10-02T06:49:26.345Z,88.00
2022-10-02T06:50:26.302Z,88.01
2022-10-02T06:51:26.273Z,87.94
2022-10-02T06:52:26.296Z,87.87
2022-10-02T06:53:26.250Z,87.82
2022-10-02T06:54:26.310Z,87.90
2022-10-02T06:55:26.336Z,87.86
2022-10-02T06:56:26.444Z,87.80
2022-10-02T06:57:26.209Z,87.68
2022-10-02T06:58:26.237Z,87.68
2022-10-02T06:59:26.254Z,87.58
2022-10-02T07:00:26.226Z,87.47
2022-10-02T07:01:26.177Z,87.50
2022-10-02T07:02:26.196Z,87.29
2022-10-02T07:03:26.158Z,87.31
2022-10-02T07:04:26.238Z,87.40
2022-10-02T07:05:26.140Z,87.48
2022-10-02T07:06:26.157Z,87.52
2022-10-02T07:07:26.293Z,87.42
2022-10-02T07:08:26.113Z,87.52
2022-10-02T07:09:26.102Z,87.42
2022-10-02T07:10:26.087Z,87.32
2022-10-02T07:11:26.130Z,87.19
2022-10-02T07:12:26.103Z,87.27
2022-10-02T07:13:26.058Z,87.36
2022-10-02T07:14:26.049Z,87.21
2022-10-02T07:15:26.047Z,87.16
2022-10-02T07:16:26.069Z,87.19
2022-10-02T07:17:26.062Z,87.27
2022-10-02T07:18:26.023Z,87.25
2022-10-02T07:19:25.989Z,87.32
2022-10-02T07:20:25.979Z,87.46
2022-10-02T07:21:26.110Z,87.38
2022-10-02T07:22:44.058Z,87.24
2022-10-02T07:23:25.971Z,87.04
2022-10-02T07:24:25.946Z,86.89
2022-10-02T07:25:25.961Z,86.91
2022-10-02T07:26:25.917Z,86.86
2022-10-02T07:27:26.032Z,86.70
2022-10-02T07:28:25.969Z,86.58
2022-10-02T07:29:25.910Z,86.59
2022-10-02T07:30:25.966Z,86.55
2022-10-02T07:31:25.895Z,86.66
2022-10-02T07:32:25.889Z,86.17
2022-10-02T07:33:29.887Z,85.97
2022-10-02T07:34:25.970Z,86.06
2022-10-02T07:35:25.844Z,86.04
2022-10-02T07:36:25.912Z,85.99
2022-10-02T07:37:25.809Z,86.02
2022-10-02T07:38:25.868Z,86.20
2022-10-02T07:39:25.801Z,86.07
2022-10-02T07:40:25.823Z,85.88
2022-10-02T07:41:25.814Z,85.96
2022-10-02T07:42:25.797Z,85.84
2022-10-02T07:43:25.744Z,85.87
2022-10-02T07:44:25.805Z,85.74
2022-10-02T07:45:25.760Z,85.92
2022-10-02T07:46:25.791Z,86.10
2022-10-02T07:47:25.737Z,86.11
2022-10-02T07:48:25.743Z,86.24
2022-10-02T07:49:25.747Z,86.65
2022-10-02T07:50:25.733Z,86.54
2022-10-02T07:51:25.701Z,86.71
2022-10-02T07:52:25.695Z,86.50
2022-10-02T07:53:25.720Z,86.42
2022-10-02T07:54:25.699Z,86.44
2022-10-02T07:55:25.666Z,86.55
2022-10-02T07:56:25.637Z,86.46
2022-10-02T07:57:25.616Z,86.24
2022-10-02T07:58:25.687Z,86.33
2022-10-02T07:59:25.592Z,85.98
2022-10-02T08:00:25.787Z,86.05
2022-10-02T08:01:25.579Z,86.05
2022-10-02T08:02:25.650Z,85.91
2022-10-02T08:03:25.666Z,85.72
2022-10-02T08:04:25.543Z,85.74
2022-10-02T08:05:25.638Z,85.88
2022-10-02T08:06:25.525Z,86.06
2022-10-02T08:07:25.538Z,85.77
2022-10-02T08:08:25.649Z,85.45
2022-10-02T08:09:26.622Z,85.13
2022-10-02T08:10:25.485Z,84.98
2022-10-02T08:11:25.554Z,84.66
2022-10-02T08:12:25.459Z,84.21
2022-10-02T08:13:25.466Z,83.89
2022-10-02T08:14:25.477Z,83.57
2022-10-02T08:15:25.432Z,83.44
2022-10-02T08:16:25.521Z,83.24
2022-10-02T08:17:25.571Z,83.32
2022-10-02T08:18:40.292Z,83.65
2022-10-02T08:19:25.437Z,83.29
2022-10-02T08:20:29.168Z,83.53
2022-10-02T08:21:25.388Z,83.49
2022-10-02T08:22:25.363Z,83.27
2022-10-02T08:23:25.403Z,83.40
2022-10-02T08:24:25.355Z,83.28
2022-10-02T08:25:25.333Z,83.13
2022-10-02T08:26:25.347Z,83.19
2022-10-02T08:27:25.326Z,83.24
2022-10-02T08:28:25.463Z,83.39
2022-10-02T08:29:25.309Z,83.09
2022-10-02T08:30:25.294Z,82.94
2022-10-02T08:31:25.378Z,82.94
2022-10-02T08:32:25.276Z,82.83
2022-10-02T08:33:25.287Z,82.92
2022-10-02T08:34:25.237Z,82.04
2022-10-02T08:35:25.221Z,82.48
2022-10-02T08:36:25.374Z,82.01
2022-10-02T08:37:25.205Z,80.95
2022-10-02T08:38:25.244Z,80.62
2022-10-02T08:39:25.187Z,80.02
2022-10-02T08:40:25.172Z,80.24
2022-10-02T08:41:25.182Z,80.47
2022-10-02T08:42:25.160Z,79.82
2022-10-02T08:43:25.202Z,80.19
2022-10-02T08:44:25.149Z,80.41
2022-10-02T08:45:25.186Z,79.89
2022-10-02T08:46:25.132Z,79.72
2022-10-02T08:47:25.213Z,79.71
2022-10-02T08:48:25.098Z,79.67
2022-10-02T08:49:25.090Z,80.12
2022-10-02T08:50:25.178Z,80.33
2022-10-02T08:51:25.077Z,80.66
2022-10-02T08:52:25.080Z,80.46
2022-10-02T08:53:25.093Z,80.59
2022-10-02T08:54:25.124Z,80.64
2022-10-02T08:55:25.035Z,79.93
2022-10-02T08:56:25.009Z,79.37
2022-10-02T08:57:25.039Z,79.52
2022-10-02T08:58:24.988Z,79.13
2022-10-02T08:59:24.993Z,79.02
2022-10-02T09:00:25.039Z,79.24
2022-10-02T09:01:25.042Z,78.24
2022-10-02T09:02:25.091Z,78.75
2022-10-02T09:03:24.948Z,78.84
2022-10-02T09:04:25.010Z,78.82
2022-10-02T09:05:24.934Z,78.53
2022-10-02T09:06:24.926Z,79.03
2022-10-02T09:07:28.178Z,79.06
2022-10-02T09:08:24.913Z,78.51
2022-10-02T09:09:24.931Z,78.19
2022-10-02T09:10:24.912Z,78.28
2022-10-02T09:11:24.925Z,78.35
2022-10-02T09:12:24.890Z,78.45
2022-10-02T09:13:24.843Z,78.18
2022-10-02T09:14:24.868Z,78.77
2022-10-02T09:15:24.963Z,78.30
2022-10-02T09:16:24.983Z,78.61
2022-10-02T09:17:24.854Z,78.37
2022-10-02T09:18:24.798Z,78.50
2022-10-02T09:19:24.794Z,77.87
2022-10-02T09:20:24.765Z,77.32
2022-10-02T09:21:24.770Z,77.66
2022-10-02T09:22:24.795Z,77.29
2022-10-02T09:23:24.749Z,77.38
2022-10-02T09:24:24.731Z,77.05
2022-10-02T09:25:24.742Z,76.74
2022-10-02T09:26:24.712Z,77.01
2022-10-02T09:27:24.708Z,77.05
2022-10-02T09:28:24.834Z,76.87
2022-10-02T09:29:24.700Z,76.95
2022-10-02T09:30:24.677Z,76.84
2022-10-02T09:31:24.700Z,77.05
2022-10-02T09:32:24.645Z,76.74
2022-10-02T09:33:24.698Z,76.69
2022-10-02T09:34:24.695Z,76.09
2022-10-02T09:35:24.627Z,75.58
2022-10-02T09:36:24.614Z,75.77
2022-10-02T09:37:24.591Z,75.46
2022-10-02T09:38:24.683Z,75.11
2022-10-02T09:39:24.595Z,75.27
2022-10-02T09:40:24.568Z,74.80
2022-10-02T09:41:24.570Z,75.00
2022-10-02T09:42:24.613Z,75.25
2022-10-02T09:43:24.531Z,75.31
2022-10-02T09:44:24.546Z,75.28
2022-10-02T09:45:24.571Z,75.24
2022-10-02T09:46:24.499Z,74.28
2022-10-02T09:47:24.514Z,74.11
2022-10-02T09:48:24.549Z,73.98
2022-10-02T09:49:24.476Z,73.59
2022-10-02T09:50:24.459Z,72.94
2022-10-02T09:51:24.471Z,72.91
2022-10-02T09:52:24.488Z,71.99
2022-10-02T09:53:24.501Z,72.12
2022-10-02T09:54:24.650Z,72.03
2022-10-02T09:55:24.406Z,72.15
2022-10-02T09:56:24.465Z,72.24
2022-10-02T09:57:24.399Z,72.51
2022-10-02T09:58:24.374Z,71.57
2022-10-02T09:59:24.377Z,71.71
2022-10-02T10:00:24.445Z,71.65
2022-10-02T10:01:24.411Z,70.95
2022-10-02T10:02:25.923Z,71.73
2022-10-02T10:03:24.344Z,71.65
2022-10-02T10:04:24.322Z,71.38
2022-10-02T10:05:24.382Z,70.40
2022-10-02T10:06:24.304Z,69.89
2022-10-02T10:07:24.294Z,69.17
2022-10-02T10:08:24.320Z,68.43
2022-10-02T10:09:24.330Z,67.94
2022-10-02T10:10:24.254Z,68.44
2022-10-02T10:11:24.258Z,67.72
2022-10-02T10:12:24.296Z,67.92
2022-10-02T10:13:24.238Z,67.99
2022-10-02T10:14:24.219Z,67.63
2022-10-02T10:15:24.246Z,68.80
2022-10-02T10:16:24.301Z,68.58
2022-10-02T10:17:24.238Z,68.97
2022-10-02T10:18:24.289Z,68.88
2022-10-02T10:19:24.179Z,69.28
2022-10-02T10:20:24.162Z,68.14
2022-10-02T10:21:28.026Z,67.98
2022-10-02T10:22:24.148Z,66.83
2022-10-02T10:23:24.180Z,66.60
2022-10-02T10:24:24.174Z,66.29
2022-10-02T10:25:24.148Z,65.70
2022-10-02T10:26:24.101Z,65.13
2022-10-02T10:27:24.140Z,65.88
2022-10-02T10:28:24.132Z,65.81
2022-10-02T10:29:24.079Z,65.90
2022-10-02T10:30:24.083Z,66.73
2022-10-02T10:31:24.128Z,66.59
2022-10-02T10:32:24.091Z,66.56
2022-10-02T10:33:24.103Z,66.14
2022-10-02T10:34:24.025Z,66.03
2022-10-02T10:35:24.053Z,65.33
2022-10-02T10:36:24.002Z,66.00
2022-10-02T10:37:24.039Z,66.15
2022-10-02T10:38:24.041Z,66.08
2022-10-02T10:39:23.975Z,66.35
2022-10-02T10:40:23.960Z,65.61
2022-10-02T10:41:24.003Z,65.35
2022-10-02T10:42:23.943Z,65.40
2022-10-02T10:43:23.998Z,65.59
2022-10-02T10:44:23.918Z,65.39
2022-10-02T10:45:24.021Z,64.74
2022-10-02T10:46:23.913Z,64.53
2022-10-02T10:47:23.939Z,63.61
2022-10-02T10:48:23.883Z,64.90
2022-10-02T10:49:23.918Z,64.50
2022-10-02T10:50:23.860Z,63.73
2022-10-02T10:51:23.858Z,63.73
2022-10-02T10:52:23.843Z,62.51
2022-10-02T10:53:23.886Z,62.84
2022-10-02T10:54:23.827Z,62.81
2022-10-02T10:55:23.848Z,62.59
2022-10-02T10:56:23.813Z,63.05
2022-10-02T10:57:23.799Z,61.67
2022-10-02T10:58:23.836Z,62.56
2022-10-02T10:59:25.475Z,62.25
2022-10-02T11:00:23.777Z,62.79
2022-10-02T11:01:23.846Z,63.08
2022-10-02T11:02:23.807Z,62.79
2022-10-02T11:03:23.784Z,62.54
2022-10-02T11:04:23.755Z,62.95
2022-10-02T11:05:23.716Z,63.91
2022-10-02T11:06:23.707Z,63.92
2022-10-02T11:07:23.764Z,64.04
2022-10-02T11:08:23.692Z,64.48
2022-10-02T11:09:23.724Z,64.48
2022-10-02T11:10:23.661Z,64.24
2022-10-02T11:11:23.667Z,64.87
2022-10-02T11:12:23.641Z,64.18
2022-10-02T11:13:23.724Z,63.65
2022-10-02T11:14:23.624Z,63.36
2022-10-02T11:15:23.617Z,63.54
2022-10-02T11:16:23.684Z,63.88
2022-10-02T11:17:23.600Z,64.30
2022-10-02T11:18:23.595Z,64.85
2022-10-02T11:19:23.681Z,65.24
2022-10-02T11:20:23.598Z,65.00
2022-10-02T11:21:23.564Z,65.28
2022-10-02T11:22:23.551Z,65.38
2022-10-02T11:23:23.579Z,65.12
2022-10-02T11:24:23.582Z,65.65
2022-10-02T11:25:23.575Z,66.01
2022-10-02T11:26:23.568Z,66.30
2022-10-02T11:27:23.501Z,66.44
2022-10-02T11:28:23.544Z,66.02
2022-10-02T11:29:23.473Z,66.05
2022-10-02T11:30:24.247Z,65.79
2022-10-02T11:31:23.732Z,65.78
2022-10-02T11:32:25.066Z,65.97
2022-10-02T11:33:23.434Z,65.76
2022-10-02T11:34:23.447Z,65.30
2022-10-02T11:35:23.460Z,63.92
2022-10-02T11:36:23.450Z,64.88
2022-10-02T11:37:23.406Z,64.59
2022-10-02T11:38:23.393Z,64.32
2022-10-02T11:39:23.373Z,63.96
2022-10-02T11:40:23.385Z,63.54
2022-10-02T11:41:23.439Z,63.31
2022-10-02T11:42:23.372Z,63.64
2022-10-02T11:43:23.342Z,64.67
2022-10-02T11:44:23.332Z,64.70
2022-10-02T11:45:23.326Z,64.89
2022-10-02T11:46:23.309Z,65.11
2022-10-02T11:47:23.348Z,65.49
2022-10-02T11:48:23.317Z,65.51
2022-10-02T11:49:23.280Z,64.94
2022-10-02T11:50:23.272Z,64.98
2022-10-02T11:51:23.276Z,64.68
2022-10-02T11:52:23.248Z,64.68
2022-10-02T11:53:23.279Z,64.54
2022-10-02T11:54:23.228Z,63.82
2022-10-02T11:55:23.217Z,63.36
2022-10-02T11:56:23.210Z,63.67
2022-10-02T11:57:23.193Z,63.28
2022-10-02T11:58:23.255Z,63.51
2022-10-02T11:59:23.182Z,63.77
2022-10-02T12:00:23.171Z,63.84
2022-10-02T12:01:23.158Z,63.67
2022-10-02T12:02:23.255Z,63.04
2022-10-02T12:03:23.308Z,63.21
2022-10-02T12:04:23.183Z,62.95
2022-10-02T12:05:23.140Z,63.16
2022-10-02T12:06:23.143Z,63.41
2022-10-02T12:07:23.170Z,62.55
2022-10-02T12:08:23.107Z,62.56
2022-10-02T12:09:23.177Z,62.99
2022-10-02T12:10:23.077Z,62.98
2022-10-02T12:11:23.065Z,63.51
2022-10-02T12:12:27.072Z,63.53
2022-10-02T12:13:23.090Z,63.94
2022-10-02T12:14:23.061Z,63.75
2022-10-02T12:15:23.075Z,62.68
2022-10-02T12:16:23.089Z,63.01
2022-10-02T12:17:23.041Z,63.37
2022-10-02T12:18:23.060Z,63.48
2022-10-02T12:19:23.052Z,63.39
2022-10-02T12:20:23.009Z,62.98
2022-10-02T12:21:22.957Z,62.77
2022-10-02T12:22:22.946Z,63.24
2022-10-02T12:23:22.941Z,63.18
2022-10-02T12:24:23.010Z,63.41
2022-10-02T12:25:22.912Z,63.68
2022-10-02T12:26:22.902Z,63.98
2022-10-02T12:27:22.952Z,64.50
2022-10-02T12:28:22.988Z,63.97
2022-10-02T12:29:22.917Z,63.29
2022-10-02T12:30:22.877Z,63.28
2022-10-02T12:31:22.895Z,63.34
2022-10-02T12:32:22.842Z,63.83
2022-10-02T12:33:22.868Z,63.77
2022-10-02T12:34:22.839Z,63.83
2022-10-02T12:35:22.907Z,64.08
2022-10-02T12:36:22.911Z,64.16
2022-10-02T12:37:22.859Z,64.51
2022-10-02T12:38:22.785Z,64.72
2022-10-02T12:39:22.817Z,64.75
2022-10-02T12:40:22.812Z,65.03
2022-10-02T12:41:22.752Z,64.83
2022-10-02T12:42:22.745Z,64.61
2022-10-02T12:43:22.744Z,64.81
2022-10-02T12:44:22.776Z,65.02
2022-10-02T12:45:22.717Z,65.33
2022-10-02T12:46:22.722Z,65.68
2022-10-02T12:47:22.690Z,66.30
2022-10-02T12:48:22.692Z,66.32
2022-10-02T12:49:22.749Z,66.97
2022-10-02T12:50:22.673Z,69.51
2022-10-02T12:51:22.654Z,71.80
2022-10-02T12:52:22.646Z,73.59
2022-10-02T12:53:22.648Z,75.40